Terminal Aerodrome Forecast
Issued by NWS

Home | Current Version | Previous Version | Text Only | Print | Product List | Glossary On
Versions: 1 2 3 4 5 6 7 8 9 10 11 12 13 14 15 16 17 18 19 20 21 22 23 24 25 26 27 28 29 30
000
FTPA31 PHFO 220500
TAFLIH
TAF
PHLI 220538Z 2206/2306 06011KT P6SM VCSH SCT020 BKN035
      TEMPO 2206/2210 BKN020
     FM221000 06010KT P6SM VCSH BKN020 OVC035
     FM221800 05011KT P6SM VCSH SCT020 BKN035
     FM222100 05013KT P6SM SCT025 SCT045=

USA.gov is the U.S. government's official web portal to all federal, state and local government web resources and services.